sensor_id;sensor_type;location;lat;lon;timestamp;P1;durP1;ratioP1;P2;durP2;ratioP2
68144;SDS011;55400;51.824;-0.196;2023-11-19T00:01:57;22.30;;;4.20;;
68144;SDS011;55400;51.824;-0.196;2023-11-19T00:05:57;22.00;;;4.40;;
68144;SDS011;55400;51.824;-0.196;2023-11-19T00:09:57;20.50;;;4.60;;
68144;SDS011;55400;51.824;-0.196;2023-11-19T00:13:57;19.20;;;5.00;;
68144;SDS011;55400;51.824;-0.196;2023-11-19T00:17:57;17.80;;;3.90;;
68144;SDS011;55400;51.824;-0.196;2023-11-19T00:21:57;16.50;;;3.90;;
68144;SDS011;55400;51.824;-0.196;2023-11-19T00:25:57;20.60;;;4.10;;
68144;SDS011;55400;51.824;-0.196;2023-11-19T00:29:57;16.80;;;4.20;;
68144;SDS011;55400;51.824;-0.196;2023-11-19T00:33:57;19.70;;;3.70;;
68144;SDS011;55400;51.824;-0.196;2023-11-19T00:37:57;22.40;;;3.90;;
68144;SDS011;55400;51.824;-0.196;2023-11-19T00:41:57;21.60;;;4.00;;
68144;SDS011;55400;51.824;-0.196;2023-11-19T00:49:57;24.10;;;4.80;;
68144;SDS011;55400;51.824;-0.196;2023-11-19T00:53:57;16.50;;;4.10;;
68144;SDS011;55400;51.824;-0.196;2023-11-19T00:57:57;16.40;;;3.40;;
68144;SDS011;55400;51.824;-0.196;2023-11-19T01:01:57;18.60;;;4.10;;
68144;SDS011;55400;51.824;-0.196;2023-11-19T01:05:57;18.70;;;4.30;;
68144;SDS011;55400;51.824;-0.196;2023-11-19T01:09:57;17.30;;;3.70;;
68144;SDS011;55400;51.824;-0.196;2023-11-19T01:13:57;16.60;;;3.90;;
68144;SDS011;55400;51.824;-0.196;2023-11-19T01:17:57;21.30;;;4.10;;
68144;SDS011;55400;51.824;-0.196;2023-11-19T01:21:57;20.40;;;4.40;;
68144;SDS011;55400;51.824;-0.196;2023-11-19T01:25:57;22.50;;;3.20;;
68144;SDS011;55400;51.824;-0.196;2023-11-19T01:29:57;21.80;;;3.70;;
68144;SDS011;55400;51.824;-0.196;2023-11-19T01:33:57;18.60;;;3.50;;
68144;SDS011;55400;51.824;-0.196;2023-11-19T01:37:57;16.40;;;3.50;;
68144;SDS011;55400;51.824;-0.196;2023-11-19T01:41:57;14.60;;;4.50;;
68144;SDS011;55400;51.824;-0.196;2023-11-19T01:45:57;15.80;;;3.90;;
68144;SDS011;55400;51.824;-0.196;2023-11-19T01:49:58;16.30;;;4.50;;
68144;SDS011;55400;51.824;-0.196;2023-11-19T01:57:59;17.10;;;4.10;;
68144;SDS011;55400;51.824;-0.196;2023-11-19T02:01:57;16.10;;;3.90;;
68144;SDS011;55400;51.824;-0.196;2023-11-19T02:05:58;19.20;;;4.70;;
68144;SDS011;55400;51.824;-0.196;2023-11-19T02:09:57;19.00;;;3.60;;
68144;SDS011;55400;51.824;-0.196;2023-11-19T02:13:58;18.30;;;4.20;;
68144;SDS011;55400;51.824;-0.196;2023-11-19T02:21:58;18.90;;;3.60;;
68144;SDS011;55400;51.824;-0.196;2023-11-19T02:26:03;16.20;;;3.90;;
68144;SDS011;55400;51.824;-0.196;2023-11-19T02:29:58;16.80;;;3.90;;
68144;SDS011;55400;51.824;-0.196;2023-11-19T02:33:59;14.00;;;3.70;;
68144;SDS011;55400;51.824;-0.196;2023-11-19T02:37:58;16.50;;;3.60;;
68144;SDS011;55400;51.824;-0.196;2023-11-19T02:41:57;15.60;;;3.40;;
68144;SDS011;55400;51.824;-0.196;2023-11-19T02:45:57;14.50;;;3.50;;
68144;SDS011;55400;51.824;-0.196;2023-11-19T02:49:58;17.70;;;3.80;;
68144;SDS011;55400;51.824;-0.196;2023-11-19T02:53:58;24.00;;;4.20;;
68144;SDS011;55400;51.824;-0.196;2023-11-19T02:57:57;14.50;;;3.70;;
68144;SDS011;55400;51.824;-0.196;2023-11-19T03:01:58;18.70;;;4.20;;
68144;SDS011;55400;51.824;-0.196;2023-11-19T03:05:57;18.80;;;3.50;;
68144;SDS011;55400;51.824;-0.196;2023-11-19T03:09:58;16.30;;;4.10;;
68144;SDS011;55400;51.824;-0.196;2023-11-19T03:21:58;18.20;;;4.00;;
68144;SDS011;55400;51.824;-0.196;2023-11-19T03:25:58;16.80;;;3.70;;
68144;SDS011;55400;51.824;-0.196;2023-11-19T03:29:58;13.60;;;3.70;;
68144;SDS011;55400;51.824;-0.196;2023-11-19T03:33:58;14.90;;;3.70;;
68144;SDS011;55400;51.824;-0.196;2023-11-19T03:43:01;11.80;;;3.10;;
68144;SDS011;55400;51.824;-0.196;2023-11-19T03:45:58;17.20;;;4.00;;
68144;SDS011;55400;51.824;-0.196;2023-11-19T03:49:58;15.00;;;3.30;;
68144;SDS011;55400;51.824;-0.196;2023-11-19T03:53:58;20.50;;;3.90;;
68144;SDS011;55400;51.824;-0.196;2023-11-19T03:57:58;17.40;;;4.20;;
68144;SDS011;55400;51.824;-0.196;2023-11-19T04:01:58;15.10;;;3.40;;
68144;SDS011;55400;51.824;-0.196;2023-11-19T04:05:58;17.30;;;4.30;;
68144;SDS011;55400;51.824;-0.196;2023-11-19T04:09:58;23.60;;;3.90;;
68144;SDS011;55400;51.824;-0.196;2023-11-19T04:13:58;14.60;;;3.40;;
68144;SDS011;55400;51.824;-0.196;2023-11-19T04:17:58;19.00;;;3.40;;
68144;SDS011;55400;51.824;-0.196;2023-11-19T04:21:58;14.80;;;3.60;;
68144;SDS011;55400;51.824;-0.196;2023-11-19T04:25:58;16.20;;;3.50;;
68144;SDS011;55400;51.824;-0.196;2023-11-19T04:29:58;13.60;;;3.20;;
68144;SDS011;55400;51.824;-0.196;2023-11-19T04:33:58;17.90;;;3.20;;
68144;SDS011;55400;51.824;-0.196;2023-11-19T04:37:58;15.80;;;3.20;;
68144;SDS011;55400;51.824;-0.196;2023-11-19T04:41:58;17.70;;;3.40;;
68144;SDS011;55400;51.824;-0.196;2023-11-19T04:47:57;20.00;;;3.60;;
68144;SDS011;55400;51.824;-0.196;2023-11-19T04:49:58;15.70;;;3.00;;
68144;SDS011;55400;51.824;-0.196;2023-11-19T04:53:58;17.80;;;3.50;;
68144;SDS011;55400;51.824;-0.196;2023-11-19T04:57:58;13.20;;;3.20;;
68144;SDS011;55400;51.824;-0.196;2023-11-19T05:01:58;12.80;;;3.00;;
68144;SDS011;55400;51.824;-0.196;2023-11-19T05:05:58;22.30;;;3.40;;
68144;SDS011;55400;51.824;-0.196;2023-11-19T05:09:58;16.30;;;3.20;;
68144;SDS011;55400;51.824;-0.196;2023-11-19T05:13:58;15.20;;;3.30;;
68144;SDS011;55400;51.824;-0.196;2023-11-19T05:17:58;15.60;;;3.40;;
68144;SDS011;55400;51.824;-0.196;2023-11-19T05:21:58;20.80;;;4.40;;
68144;SDS011;55400;51.824;-0.196;2023-11-19T05:25:58;15.40;;;3.70;;
68144;SDS011;55400;51.824;-0.196;2023-11-19T05:29:58;14.20;;;3.60;;
68144;SDS011;55400;51.824;-0.196;2023-11-19T05:33:58;15.90;;;3.40;;
68144;SDS011;55400;51.824;-0.196;2023-11-19T05:37:58;18.60;;;3.40;;
68144;SDS011;55400;51.824;-0.196;2023-11-19T05:41:58;15.60;;;3.80;;
68144;SDS011;55400;51.824;-0.196;2023-11-19T05:45:58;15.70;;;3.10;;
68144;SDS011;55400;51.824;-0.196;2023-11-19T05:49:58;14.50;;;3.50;;
68144;SDS011;55400;51.824;-0.196;2023-11-19T05:53:58;13.40;;;3.30;;
68144;SDS011;55400;51.824;-0.196;2023-11-19T05:57:58;19.10;;;5.00;;
68144;SDS011;55400;51.824;-0.196;2023-11-19T06:01:58;16.90;;;3.20;;
68144;SDS011;55400;51.824;-0.196;2023-11-19T06:05:58;13.20;;;3.00;;
68144;SDS011;55400;51.824;-0.196;2023-11-19T06:09:58;14.80;;;3.20;;
68144;SDS011;55400;51.824;-0.196;2023-11-19T06:13:58;12.20;;;2.80;;
68144;SDS011;55400;51.824;-0.196;2023-11-19T06:17:58;13.50;;;3.00;;
68144;SDS011;55400;51.824;-0.196;2023-11-19T06:21:58;14.30;;;3.20;;
68144;SDS011;55400;51.824;-0.196;2023-11-19T06:25:58;13.60;;;2.60;;
68144;SDS011;55400;51.824;-0.196;2023-11-19T06:29:58;13.70;;;2.90;;
68144;SDS011;55400;51.824;-0.196;2023-11-19T06:33:58;13.80;;;2.60;;
68144;SDS011;55400;51.824;-0.196;2023-11-19T06:37:58;13.00;;;3.10;;
68144;SDS011;55400;51.824;-0.196;2023-11-19T06:41:58;12.40;;;3.10;;
68144;SDS011;55400;51.824;-0.196;2023-11-19T06:45:58;17.00;;;2.90;;
68144;SDS011;55400;51.824;-0.196;2023-11-19T06:49:59;12.80;;;2.80;;
68144;SDS011;55400;51.824;-0.196;2023-11-19T06:53:58;12.30;;;2.70;;
68144;SDS011;55400;51.824;-0.196;2023-11-19T06:57:59;14.00;;;2.70;;
68144;SDS011;55400;51.824;-0.196;2023-11-19T07:01:58;12.80;;;3.30;;
68144;SDS011;55400;51.824;-0.196;2023-11-19T07:05:58;13.70;;;3.20;;
68144;SDS011;55400;51.824;-0.196;2023-11-19T07:09:58;15.60;;;3.20;;
68144;SDS011;55400;51.824;-0.196;2023-11-19T07:13:58;11.20;;;2.70;;
68144;SDS011;55400;51.824;-0.196;2023-11-19T07:17:58;11.40;;;2.70;;
68144;SDS011;55400;51.824;-0.196;2023-11-19T07:21:58;18.60;;;3.20;;
68144;SDS011;55400;51.824;-0.196;2023-11-19T07:25:58;12.90;;;2.90;;
68144;SDS011;55400;51.824;-0.196;2023-11-19T07:29:58;11.30;;;3.00;;
68144;SDS011;55400;51.824;-0.196;2023-11-19T07:33:58;14.00;;;3.30;;
68144;SDS011;55400;51.824;-0.196;2023-11-19T07:37:58;10.70;;;2.60;;
68144;SDS011;55400;51.824;-0.196;2023-11-19T07:41:59;11.60;;;3.00;;
68144;SDS011;55400;51.824;-0.196;2023-11-19T07:45:58;15.40;;;2.80;;
68144;SDS011;55400;51.824;-0.196;2023-11-19T07:49:58;13.20;;;2.90;;
68144;SDS011;55400;51.824;-0.196;2023-11-19T07:53:59;9.10;;;2.60;;
68144;SDS011;55400;51.824;-0.196;2023-11-19T08:01:58;14.10;;;3.20;;
68144;SDS011;55400;51.824;-0.196;2023-11-19T08:05:58;10.70;;;2.60;;
68144;SDS011;55400;51.824;-0.196;2023-11-19T08:09:58;9.40;;;2.70;;
68144;SDS011;55400;51.824;-0.196;2023-11-19T08:13:12;13.30;;;2.50;;
68144;SDS011;55400;51.824;-0.196;2023-11-19T08:13:58;13.30;;;2.50;;
68144;SDS011;55400;51.824;-0.196;2023-11-19T08:15:56;unknown;;;unknown;;
68144;SDS011;55400;51.824;-0.196;2023-11-19T08:17:13;13.70;;;3.00;;
68144;SDS011;55400;51.824;-0.196;2023-11-19T08:19:31;13.70;;;3.00;;
68144;SDS011;55400;51.824;-0.196;2023-11-19T08:21:13;15.30;;;3.60;;
68144;SDS011;55400;51.824;-0.196;2023-11-19T08:25:13;9.80;;;2.20;;
68144;SDS011;55400;51.824;-0.196;2023-11-19T08:33:13;8.50;;;2.00;;
68144;SDS011;55400;51.824;-0.196;2023-11-19T08:41:13;8.70;;;2.40;;
68144;SDS011;55400;51.824;-0.196;2023-11-19T08:45:14;11.70;;;2.50;;
68144;SDS011;55400;51.824;-0.196;2023-11-19T08:49:13;10.20;;;2.10;;
68144;SDS011;55400;51.824;-0.196;2023-11-19T08:53:13;12.70;;;2.30;;
68144;SDS011;55400;51.824;-0.196;2023-11-19T08:57:13;11.30;;;2.70;;
68144;SDS011;55400;51.824;-0.196;2023-11-19T09:01:14;11.00;;;2.70;;
68144;SDS011;55400;51.824;-0.196;2023-11-19T09:05:14;6.60;;;2.30;;
68144;SDS011;55400;51.824;-0.196;2023-11-19T09:09:14;12.00;;;3.10;;
68144;SDS011;55400;51.824;-0.196;2023-11-19T09:13:14;9.00;;;2.40;;
68144;SDS011;55400;51.824;-0.196;2023-11-19T09:17:14;8.20;;;2.60;;
68144;SDS011;55400;51.824;-0.196;2023-11-19T09:21:14;8.90;;;2.40;;
68144;SDS011;55400;51.824;-0.196;2023-11-19T09:25:13;14.10;;;2.70;;
68144;SDS011;55400;51.824;-0.196;2023-11-19T09:29:14;10.30;;;2.50;;
68144;SDS011;55400;51.824;-0.196;2023-11-19T09:33:14;6.50;;;2.40;;
68144;SDS011;55400;51.824;-0.196;2023-11-19T09:37:14;10.20;;;2.50;;
68144;SDS011;55400;51.824;-0.196;2023-11-19T09:41:14;9.00;;;2.20;;
68144;SDS011;55400;51.824;-0.196;2023-11-19T09:45:15;10.00;;;2.20;;
68144;SDS011;55400;51.824;-0.196;2023-11-19T09:49:14;9.00;;;2.40;;
68144;SDS011;55400;51.824;-0.196;2023-11-19T09:53:14;11.30;;;2.40;;
68144;SDS011;55400;51.824;-0.196;2023-11-19T09:57:15;7.50;;;2.10;;
68144;SDS011;55400;51.824;-0.196;2023-11-19T10:01:14;10.80;;;2.40;;
68144;SDS011;55400;51.824;-0.196;2023-11-19T10:05:14;8.10;;;2.70;;
68144;SDS011;55400;51.824;-0.196;2023-11-19T10:09:14;13.70;;;2.50;;
68144;SDS011;55400;51.824;-0.196;2023-11-19T10:13:14;9.10;;;2.10;;
68144;SDS011;55400;51.824;-0.196;2023-11-19T10:17:14;19.20;;;3.20;;
68144;SDS011;55400;51.824;-0.196;2023-11-19T10:21:14;9.50;;;2.50;;
68144;SDS011;55400;51.824;-0.196;2023-11-19T10:23:53;9.50;;;2.50;;
68144;SDS011;55400;51.824;-0.196;2023-11-19T10:25:22;9.80;;;2.50;;
68144;SDS011;55400;51.824;-0.196;2023-11-19T10:28:15;9.80;;;2.50;;
68144;SDS011;55400;51.824;-0.196;2023-11-19T10:29:14;9.10;;;2.30;;
68144;SDS011;55400;51.824;-0.196;2023-11-19T10:30:56;unknown;;;unknown;;
68144;SDS011;55400;51.824;-0.196;2023-11-19T10:36:38;11.90;;;2.90;;
68144;SDS011;55400;51.824;-0.196;2023-11-19T10:40:38;11.10;;;2.30;;
68144;SDS011;55400;51.824;-0.196;2023-11-19T10:44:38;13.50;;;2.40;;
68144;SDS011;55400;51.824;-0.196;2023-11-19T10:48:38;11.60;;;2.50;;
68144;SDS011;55400;51.824;-0.196;2023-11-19T10:52:55;11.00;;;2.50;;
68144;SDS011;55400;51.824;-0.196;2023-11-19T10:56:39;9.10;;;2.20;;
68144;SDS011;55400;51.824;-0.196;2023-11-19T11:00:39;9.50;;;2.50;;
68144;SDS011;55400;51.824;-0.196;2023-11-19T11:04:39;7.90;;;1.90;;
68144;SDS011;55400;51.824;-0.196;2023-11-19T11:08:38;7.40;;;2.00;;
68144;SDS011;55400;51.824;-0.196;2023-11-19T11:12:38;7.60;;;2.40;;
68144;SDS011;55400;51.824;-0.196;2023-11-19T11:16:42;11.30;;;2.90;;
68144;SDS011;55400;51.824;-0.196;2023-11-19T11:20:38;10.80;;;2.10;;
68144;SDS011;55400;51.824;-0.196;2023-11-19T11:24:49;9.60;;;2.10;;
68144;SDS011;55400;51.824;-0.196;2023-11-19T11:28:43;7.20;;;2.20;;
68144;SDS011;55400;51.824;-0.196;2023-11-19T11:35:55;8.60;;;2.00;;
68144;SDS011;55400;51.824;-0.196;2023-11-19T11:40:38;9.30;;;2.10;;
68144;SDS011;55400;51.824;-0.196;2023-11-19T11:48:45;8.00;;;2.10;;
68144;SDS011;55400;51.824;-0.196;2023-11-19T11:56:38;4.00;;;1.60;;
68144;SDS011;55400;51.824;-0.196;2023-11-19T12:00:40;8.40;;;2.70;;
68144;SDS011;55400;51.824;-0.196;2023-11-19T12:05:19;6.30;;;1.80;;
68144;SDS011;55400;51.824;-0.196;2023-11-19T12:08:38;7.30;;;1.80;;
68144;SDS011;55400;51.824;-0.196;2023-11-19T12:12:38;7.70;;;1.60;;
68144;SDS011;55400;51.824;-0.196;2023-11-19T12:20:38;5.30;;;1.40;;
68144;SDS011;55400;51.824;-0.196;2023-11-19T12:26:21;4.50;;;1.70;;
68144;SDS011;55400;51.824;-0.196;2023-11-19T12:28:38;6.50;;;1.60;;
68144;SDS011;55400;51.824;-0.196;2023-11-19T12:34:50;6.50;;;1.60;;
68144;SDS011;55400;51.824;-0.196;2023-11-19T12:42:10;6.60;;;1.70;;
68144;SDS011;55400;51.824;-0.196;2023-11-19T12:44:38;6.60;;;1.70;;
68144;SDS011;55400;51.824;-0.196;2023-11-19T12:48:41;4.40;;;1.80;;
68144;SDS011;55400;51.824;-0.196;2023-11-19T12:52:38;4.40;;;1.80;;
68144;SDS011;55400;51.824;-0.196;2023-11-19T12:56:38;4.70;;;1.60;;
68144;SDS011;55400;51.824;-0.196;2023-11-19T13:00:38;5.10;;;1.10;;
68144;SDS011;55400;51.824;-0.196;2023-11-19T13:04:38;4.20;;;1.20;;
68144;SDS011;55400;51.824;-0.196;2023-11-19T13:08:39;7.90;;;1.80;;
68144;SDS011;55400;51.824;-0.196;2023-11-19T13:12:38;6.40;;;1.40;;
68144;SDS011;55400;51.824;-0.196;2023-11-19T13:16:38;6.70;;;1.40;;
68144;SDS011;55400;51.824;-0.196;2023-11-19T13:20:38;4.20;;;1.20;;
68144;SDS011;55400;51.824;-0.196;2023-11-19T13:24:38;7.00;;;1.50;;
68144;SDS011;55400;51.824;-0.196;2023-11-19T13:28:38;4.90;;;1.40;;
68144;SDS011;55400;51.824;-0.196;2023-11-19T13:32:38;2.90;;;0.80;;
68144;SDS011;55400;51.824;-0.196;2023-11-19T13:36:38;4.60;;;1.30;;
68144;SDS011;55400;51.824;-0.196;2023-11-19T13:40:38;6.30;;;1.40;;
68144;SDS011;55400;51.824;-0.196;2023-11-19T13:44:38;4.60;;;1.40;;
68144;SDS011;55400;51.824;-0.196;2023-11-19T13:48:38;2.50;;;1.00;;
68144;SDS011;55400;51.824;-0.196;2023-11-19T13:52:39;3.40;;;1.30;;
68144;SDS011;55400;51.824;-0.196;2023-11-19T13:56:38;3.50;;;1.30;;
68144;SDS011;55400;51.824;-0.196;2023-11-19T14:00:38;2.70;;;1.10;;
68144;SDS011;55400;51.824;-0.196;2023-11-19T14:04:38;2.40;;;0.90;;
68144;SDS011;55400;51.824;-0.196;2023-11-19T14:08:38;5.10;;;1.50;;
68144;SDS011;55400;51.824;-0.196;2023-11-19T14:12:38;4.60;;;1.00;;
68144;SDS011;55400;51.824;-0.196;2023-11-19T14:16:38;3.40;;;1.00;;
68144;SDS011;55400;51.824;-0.196;2023-11-19T14:20:38;2.80;;;1.00;;
68144;SDS011;55400;51.824;-0.196;2023-11-19T14:24:38;2.80;;;1.00;;
68144;SDS011;55400;51.824;-0.196;2023-11-19T14:28:38;1.80;;;0.70;;
68144;SDS011;55400;51.824;-0.196;2023-11-19T14:32:39;3.90;;;0.90;;
68144;SDS011;55400;51.824;-0.196;2023-11-19T14:36:07;2.00;;;1.00;;
68144;SDS011;55400;51.824;-0.196;2023-11-19T14:36:38;2.00;;;1.00;;
68144;SDS011;55400;51.824;-0.196;2023-11-19T14:40:38;2.10;;;0.80;;
68144;SDS011;55400;51.824;-0.196;2023-11-19T14:44:38;1.50;;;0.80;;
68144;SDS011;55400;51.824;-0.196;2023-11-19T14:48:38;1.70;;;0.80;;
68144;SDS011;55400;51.824;-0.196;2023-11-19T14:53:07;3.60;;;0.90;;
68144;SDS011;55400;51.824;-0.196;2023-11-19T14:56:38;3.60;;;0.90;;
68144;SDS011;55400;51.824;-0.196;2023-11-19T15:00:38;1.80;;;0.60;;
68144;SDS011;55400;51.824;-0.196;2023-11-19T15:04:38;1.50;;;0.90;;
68144;SDS011;55400;51.824;-0.196;2023-11-19T15:08:38;1.30;;;0.50;;
68144;SDS011;55400;51.824;-0.196;2023-11-19T15:12:44;4.40;;;1.00;;
68144;SDS011;55400;51.824;-0.196;2023-11-19T15:16:38;3.90;;;0.70;;
68144;SDS011;55400;51.824;-0.196;2023-11-19T15:20:39;3.60;;;0.80;;
68144;SDS011;55400;51.824;-0.196;2023-11-19T15:24:38;2.80;;;0.90;;
68144;SDS011;55400;51.824;-0.196;2023-11-19T15:28:38;2.70;;;0.70;;
68144;SDS011;55400;51.824;-0.196;2023-11-19T15:32:38;3.50;;;1.20;;
68144;SDS011;55400;51.824;-0.196;2023-11-19T15:36:38;4.20;;;1.30;;
68144;SDS011;55400;51.824;-0.196;2023-11-19T15:40:38;2.50;;;1.00;;
68144;SDS011;55400;51.824;-0.196;2023-11-19T15:44:38;2.80;;;1.10;;
68144;SDS011;55400;51.824;-0.196;2023-11-19T15:48:38;4.10;;;1.20;;
68144;SDS011;55400;51.824;-0.196;2023-11-19T15:52:39;3.10;;;1.00;;
68144;SDS011;55400;51.824;-0.196;2023-11-19T15:56:38;2.50;;;0.90;;
68144;SDS011;55400;51.824;-0.196;2023-11-19T16:00:38;4.50;;;1.10;;
68144;SDS011;55400;51.824;-0.196;2023-11-19T16:04:38;5.60;;;1.40;;
68144;SDS011;55400;51.824;-0.196;2023-11-19T16:08:39;3.80;;;1.10;;
68144;SDS011;55400;51.824;-0.196;2023-11-19T16:16:38;5.30;;;1.60;;
68144;SDS011;55400;51.824;-0.196;2023-11-19T16:20:39;7.30;;;1.80;;
68144;SDS011;55400;51.824;-0.196;2023-11-19T16:24:38;5.60;;;1.60;;
68144;SDS011;55400;51.824;-0.196;2023-11-19T16:28:39;3.20;;;1.40;;
68144;SDS011;55400;51.824;-0.196;2023-11-19T16:32:50;7.90;;;1.70;;
68144;SDS011;55400;51.824;-0.196;2023-11-19T16:36:38;7.20;;;1.40;;
68144;SDS011;55400;51.824;-0.196;2023-11-19T16:40:38;6.20;;;2.00;;
68144;SDS011;55400;51.824;-0.196;2023-11-19T16:44:38;4.90;;;1.80;;
68144;SDS011;55400;51.824;-0.196;2023-11-19T16:48:06;5.50;;;1.80;;
68144;SDS011;55400;51.824;-0.196;2023-11-19T16:48:38;5.50;;;1.80;;
68144;SDS011;55400;51.824;-0.196;2023-11-19T16:54:07;4.80;;;1.60;;
68144;SDS011;55400;51.824;-0.196;2023-11-19T16:56:41;4.80;;;1.60;;
68144;SDS011;55400;51.824;-0.196;2023-11-19T17:00:38;7.00;;;1.90;;
68144;SDS011;55400;51.824;-0.196;2023-11-19T17:04:39;5.60;;;2.30;;
68144;SDS011;55400;51.824;-0.196;2023-11-19T17:08:38;4.80;;;1.80;;
68144;SDS011;55400;51.824;-0.196;2023-11-19T17:12:39;10.30;;;3.00;;
68144;SDS011;55400;51.824;-0.196;2023-11-19T17:16:39;5.30;;;2.20;;
68144;SDS011;55400;51.824;-0.196;2023-11-19T17:20:38;6.10;;;2.20;;
68144;SDS011;55400;51.824;-0.196;2023-11-19T17:24:39;8.10;;;2.50;;
68144;SDS011;55400;51.824;-0.196;2023-11-19T17:28:39;8.20;;;2.30;;
68144;SDS011;55400;51.824;-0.196;2023-11-19T17:32:39;6.60;;;2.10;;
68144;SDS011;55400;51.824;-0.196;2023-11-19T17:36:39;6.90;;;1.60;;
68144;SDS011;55400;51.824;-0.196;2023-11-19T17:40:39;5.30;;;1.90;;
68144;SDS011;55400;51.824;-0.196;2023-11-19T17:44:39;8.40;;;2.00;;
68144;SDS011;55400;51.824;-0.196;2023-11-19T17:48:39;6.90;;;2.50;;
68144;SDS011;55400;51.824;-0.196;2023-11-19T17:52:39;7.10;;;1.80;;
68144;SDS011;55400;51.824;-0.196;2023-11-19T17:56:39;6.80;;;1.70;;
68144;SDS011;55400;51.824;-0.196;2023-11-19T18:00:39;6.60;;;1.90;;
68144;SDS011;55400;51.824;-0.196;2023-11-19T18:04:39;4.90;;;1.60;;
68144;SDS011;55400;51.824;-0.196;2023-11-19T18:08:39;8.10;;;1.70;;
68144;SDS011;55400;51.824;-0.196;2023-11-19T18:12:39;5.60;;;1.20;;
68144;SDS011;55400;51.824;-0.196;2023-11-19T18:16:39;8.00;;;2.30;;
68144;SDS011;55400;51.824;-0.196;2023-11-19T18:20:39;6.10;;;1.80;;
68144;SDS011;55400;51.824;-0.196;2023-11-19T18:24:39;9.00;;;1.70;;
68144;SDS011;55400;51.824;-0.196;2023-11-19T18:28:39;7.60;;;1.70;;
68144;SDS011;55400;51.824;-0.196;2023-11-19T18:32:39;6.60;;;2.20;;
68144;SDS011;55400;51.824;-0.196;2023-11-19T18:36:39;4.30;;;1.30;;
68144;SDS011;55400;51.824;-0.196;2023-11-19T18:40:39;4.50;;;1.70;;
68144;SDS011;55400;51.824;-0.196;2023-11-19T18:44:39;5.30;;;1.60;;
68144;SDS011;55400;51.824;-0.196;2023-11-19T18:48:39;4.90;;;1.50;;
68144;SDS011;55400;51.824;-0.196;2023-11-19T18:52:39;6.20;;;1.80;;
68144;SDS011;55400;51.824;-0.196;2023-11-19T18:56:39;7.00;;;1.70;;
68144;SDS011;55400;51.824;-0.196;2023-11-19T19:00:39;4.20;;;1.40;;
68144;SDS011;55400;51.824;-0.196;2023-11-19T19:04:39;7.90;;;2.20;;
68144;SDS011;55400;51.824;-0.196;2023-11-19T19:08:39;8.30;;;1.80;;
68144;SDS011;55400;51.824;-0.196;2023-11-19T19:12:39;9.10;;;1.70;;
68144;SDS011;55400;51.824;-0.196;2023-11-19T19:16:39;7.50;;;2.10;;
68144;SDS011;55400;51.824;-0.196;2023-11-19T19:20:39;8.00;;;2.10;;
68144;SDS011;55400;51.824;-0.196;2023-11-19T19:28:39;10.80;;;1.80;;
68144;SDS011;55400;51.824;-0.196;2023-11-19T19:32:39;10.00;;;2.20;;
68144;SDS011;55400;51.824;-0.196;2023-11-19T19:36:39;5.70;;;1.80;;
68144;SDS011;55400;51.824;-0.196;2023-11-19T19:40:39;5.60;;;2.00;;
68144;SDS011;55400;51.824;-0.196;2023-11-19T19:44:39;9.10;;;2.30;;
68144;SDS011;55400;51.824;-0.196;2023-11-19T19:48:39;8.20;;;2.20;;
68144;SDS011;55400;51.824;-0.196;2023-11-19T19:52:39;8.50;;;2.50;;
68144;SDS011;55400;51.824;-0.196;2023-11-19T19:56:39;9.60;;;2.60;;
68144;SDS011;55400;51.824;-0.196;2023-11-19T20:00:39;9.90;;;2.30;;
68144;SDS011;55400;51.824;-0.196;2023-11-19T20:04:39;11.60;;;2.40;;
68144;SDS011;55400;51.824;-0.196;2023-11-19T20:08:39;7.80;;;2.10;;
68144;SDS011;55400;51.824;-0.196;2023-11-19T20:16:39;8.20;;;2.10;;
68144;SDS011;55400;51.824;-0.196;2023-11-19T20:24:39;11.20;;;2.70;;
68144;SDS011;55400;51.824;-0.196;2023-11-19T20:28:39;9.80;;;2.50;;
68144;SDS011;55400;51.824;-0.196;2023-11-19T20:32:39;11.60;;;2.60;;
68144;SDS011;55400;51.824;-0.196;2023-11-19T20:36:39;6.40;;;2.70;;
68144;SDS011;55400;51.824;-0.196;2023-11-19T20:40:39;11.30;;;2.70;;
68144;SDS011;55400;51.824;-0.196;2023-11-19T20:44:39;8.70;;;2.50;;
68144;SDS011;55400;51.824;-0.196;2023-11-19T20:48:39;12.20;;;2.40;;
68144;SDS011;55400;51.824;-0.196;2023-11-19T20:52:39;8.50;;;2.40;;
68144;SDS011;55400;51.824;-0.196;2023-11-19T20:56:39;12.00;;;2.70;;
68144;SDS011;55400;51.824;-0.196;2023-11-19T21:00:39;10.10;;;2.30;;
68144;SDS011;55400;51.824;-0.196;2023-11-19T21:04:39;8.40;;;2.20;;
68144;SDS011;55400;51.824;-0.196;2023-11-19T21:08:39;11.10;;;2.40;;
68144;SDS011;55400;51.824;-0.196;2023-11-19T21:12:39;11.10;;;2.80;;
68144;SDS011;55400;51.824;-0.196;2023-11-19T21:16:39;10.40;;;2.30;;
68144;SDS011;55400;51.824;-0.196;2023-11-19T21:20:39;12.80;;;2.80;;
68144;SDS011;55400;51.824;-0.196;2023-11-19T21:24:39;12.00;;;2.90;;
68144;SDS011;55400;51.824;-0.196;2023-11-19T21:28:39;7.80;;;2.30;;
68144;SDS011;55400;51.824;-0.196;2023-11-19T21:32:39;8.40;;;2.60;;
68144;SDS011;55400;51.824;-0.196;2023-11-19T21:36:39;8.00;;;2.30;;
68144;SDS011;55400;51.824;-0.196;2023-11-19T21:40:39;14.30;;;2.90;;
68144;SDS011;55400;51.824;-0.196;2023-11-19T21:44:39;12.30;;;2.20;;
68144;SDS011;55400;51.824;-0.196;2023-11-19T21:48:40;9.00;;;2.60;;
68144;SDS011;55400;51.824;-0.196;2023-11-19T21:52:39;14.80;;;2.80;;
68144;SDS011;55400;51.824;-0.196;2023-11-19T21:56:39;11.90;;;3.10;;
68144;SDS011;55400;51.824;-0.196;2023-11-19T22:04:39;9.80;;;2.80;;
68144;SDS011;55400;51.824;-0.196;2023-11-19T22:08:40;8.60;;;2.00;;
68144;SDS011;55400;51.824;-0.196;2023-11-19T22:12:40;10.10;;;2.50;;
68144;SDS011;55400;51.824;-0.196;2023-11-19T22:16:39;8.00;;;2.00;;
68144;SDS011;55400;51.824;-0.196;2023-11-19T22:20:39;8.60;;;2.20;;
68144;SDS011;55400;51.824;-0.196;2023-11-19T22:28:39;10.50;;;3.10;;
68144;SDS011;55400;51.824;-0.196;2023-11-19T22:32:39;8.90;;;2.70;;
68144;SDS011;55400;51.824;-0.196;2023-11-19T22:36:39;7.80;;;2.30;;
68144;SDS011;55400;51.824;-0.196;2023-11-19T22:40:40;8.40;;;2.20;;
68144;SDS011;55400;51.824;-0.196;2023-11-19T22:44:40;10.50;;;2.40;;
68144;SDS011;55400;51.824;-0.196;2023-11-19T22:48:40;9.70;;;2.10;;
68144;SDS011;55400;51.824;-0.196;2023-11-19T22:52:39;7.40;;;2.30;;
68144;SDS011;55400;51.824;-0.196;2023-11-19T22:56:40;7.90;;;2.20;;
68144;SDS011;55400;51.824;-0.196;2023-11-19T23:00:40;8.00;;;2.30;;
68144;SDS011;55400;51.824;-0.196;2023-11-19T23:04:39;9.10;;;2.60;;
68144;SDS011;55400;51.824;-0.196;2023-11-19T23:08:40;7.50;;;2.20;;
68144;SDS011;55400;51.824;-0.196;2023-11-19T23:12:39;8.50;;;2.30;;
68144;SDS011;55400;51.824;-0.196;2023-11-19T23:16:40;9.10;;;2.50;;
68144;SDS011;55400;51.824;-0.196;2023-11-19T23:20:39;9.70;;;2.20;;
68144;SDS011;55400;51.824;-0.196;2023-11-19T23:24:40;10.50;;;1.70;;
68144;SDS011;55400;51.824;-0.196;2023-11-19T23:28:40;8.00;;;1.80;;
68144;SDS011;55400;51.824;-0.196;2023-11-19T23:32:40;11.00;;;2.30;;
68144;SDS011;55400;51.824;-0.196;2023-11-19T23:36:40;8.10;;;2.20;;
68144;SDS011;55400;51.824;-0.196;2023-11-19T23:44:40;9.60;;;2.70;;
68144;SDS011;55400;51.824;-0.196;2023-11-19T23:48:40;11.20;;;2.60;;
68144;SDS011;55400;51.824;-0.196;2023-11-19T23:56:40;11.00;;;2.30;;
